PWSweather.com
Personal Weather Stations
Station Observations
GRD01
Warsaw, LesznoPL 05-084

WarsawLesznoPL 05-084

Lat: 52.257404, Lon: 20.564847

Elevation: 298

Station Type: WH3080

http://pogoda.kampinos.waw.pl

High Low Average
Temperature 70.3°F21.3°C 56.5°F13.6°C 63.1°F17.3°C
Dew Point 60.1°F15.6°C 52.7°F11.5°C 56.6°F13.7°C
Winds 19.0 mph 30.6 kmh Calm Calm 7.0 mph WSW11.3 kmh WSW
Wind Gusts 31.1 mph50.1 kmh -- 12.0 mph19.3 kmh
Humidity 100% 57% 81%
Pressure 30.82 in1043.7 mb 30.53 in1033.9 mb -
Precipitation 0.70 in17.8 mm - -
Hour Temp Dew Point Humidity Winds Wind Gusts Pressure Precip Precip Rate Daily Precip Total
12:00 AM 65.8°F18.8°C 55.4°F13.0°C 69% 8.3 mph NE13.4 kmh NE 12.1 mph19.5 kmh 30.57 in1035.2 mb 0.00 in0.0 mm 0.00 in0.0 mm 0.00 in0.0 mm
12:05 AM 66.0°F18.9°C 55.2°F12.9°C 68% 6.0 mph NE9.7 kmh NE 9.8 mph15.8 kmh 30.13 in1020.3 mb 0.00 in0.0 mm 0.00 in0.0 mm 0.00 in0.0 mm
12:15 AM 65.3°F18.5°C 55.3°F12.9°C 70% 5.4 mph NE8.7 kmh NE 13.6 mph21.9 kmh 30.56 in1034.9 mb 0.00 in0.0 mm 0.00 in0.0 mm 0.00 in0.0 mm
12:30 AM 64.2°F17.9°C 55.0°F12.8°C 72% 5.4 mph NE8.7 kmh NE 10.7 mph17.2 kmh 30.56 in1034.9 mb 0.01 in0.3 mm 0.04 in1.0 mm 0.01 in0.3 mm
12:35 AM 64.4°F18.0°C 54.8°F12.7°C 71% 3.8 mph NE6.1 kmh NE 4.5 mph7.2 kmh 30.12 in1020.0 mb 0.01 in0.3 mm 0.00 in0.0 mm 0.01 in0.3 mm
12:45 AM 62.8°F17.1°C 56.5°F13.6°C 80% 6.0 mph NE9.7 kmh NE 9.2 mph14.8 kmh 30.55 in1034.5 mb 0.02 in0.5 mm 0.06 in1.5 mm 0.02 in0.5 mm
01:00 AM 62.4°F16.9°C 56.5°F13.6°C 81% 5.4 mph NE8.7 kmh NE 9.2 mph14.8 kmh 30.54 in1034.2 mb 0.02 in0.5 mm 0.00 in0.0 mm 0.02 in0.5 mm
01:05 AM 62.4°F16.9°C 56.5°F13.6°C 81% 5.4 mph NE8.7 kmh NE 7.6 mph12.2 kmh 30.11 in1019.6 mb 0.02 in0.5 mm 0.00 in0.0 mm 0.02 in0.5 mm
01:15 AM 61.7°F16.5°C 57.1°F13.9°C 85% 8.3 mph NNE13.4 kmh NNE 11.4 mph18.3 kmh 30.54 in1034.2 mb 0.04 in1.0 mm 0.12 in3.0 mm 0.04 in1.0 mm
01:30 AM 61.5°F16.4°C 57.6°F14.2°C 87% 6.9 mph N11.1 kmh N 9.8 mph15.8 kmh 30.54 in1034.2 mb 0.04 in1.0 mm 0.00 in0.0 mm 0.05 in1.3 mm
01:35 AM 61.5°F16.4°C 57.6°F14.2°C 87% 6.9 mph N11.1 kmh N 8.3 mph13.4 kmh 30.10 in1019.3 mb 0.04 in1.0 mm 0.00 in0.0 mm 0.05 in1.3 mm
01:45 AM 60.8°F16.0°C 57.5°F14.2°C 89% 7.6 mph N12.2 kmh N 16.8 mph27.0 kmh 30.54 in1034.2 mb 0.13 in3.3 mm 0.54 in13.7 mm 0.15 in3.8 mm
02:00 AM 60.4°F15.8°C 57.5°F14.2°C 90% 7.6 mph N12.2 kmh N 13.6 mph21.9 kmh 30.55 in1034.5 mb 0.22 in5.6 mm 0.12 in3.0 mm 0.25 in6.4 mm
02:05 AM 60.4°F15.8°C 57.5°F14.2°C 90% 7.6 mph N12.2 kmh N 9.2 mph14.8 kmh 30.11 in1019.6 mb 0.20 in5.1 mm 0.00 in0.0 mm 0.22 in5.6 mm
02:15 AM 60.1°F15.6°C 57.4°F14.1°C 91% 15.2 mph NNW24.5 kmh NNW 18.3 mph29.5 kmh 30.55 in1034.5 mb 0.30 in7.6 mm 0.60 in15.2 mm 0.33 in8.4 mm
02:30 AM 59.7°F15.4°C 57.4°F14.1°C 92% 14.5 mph N23.3 kmh N 20.6 mph33.2 kmh 30.55 in1034.5 mb 0.37 in9.4 mm 0.28 in7.1 mm 0.41 in10.4 mm
02:35 AM 59.7°F15.4°C 57.4°F14.1°C 92% 10.7 mph N17.2 kmh N 13.0 mph20.9 kmh 30.10 in1019.3 mb 0.35 in8.9 mm 0.00 in0.0 mm 0.40 in10.2 mm
02:45 AM 59.7°F15.4°C 57.7°F14.3°C 93% 18.3 mph N29.5 kmh N 25.1 mph40.4 kmh 30.54 in1034.2 mb 0.34 in8.6 mm 0.00 in0.0 mm 0.50 in12.7 mm
03:00 AM 59.7°F15.4°C 58.3°F14.6°C 95% 12.1 mph N19.5 kmh N 29.8 mph48.0 kmh 30.55 in1034.5 mb 0.28 in7.1 mm 0.00 in0.0 mm 0.53 in13.5 mm
03:05 AM 59.7°F15.4°C 58.0°F14.4°C 94% 23.5 mph N37.8 kmh N 29.8 mph48.0 kmh 30.09 in1019.0 mb 0.31 in7.9 mm 0.36 in9.1 mm 0.53 in13.5 mm
03:15 AM 59.5°F15.3°C 58.4°F14.7°C 96% 17.4 mph NNE28.0 kmh NNE 31.1 mph50.1 kmh 30.54 in1034.2 mb 0.31 in7.9 mm 0.00 in0.0 mm 0.65 in16.5 mm
03:30 AM 59.5°F15.3°C 58.4°F14.7°C 96% 15.9 mph NNE25.6 kmh NNE 25.1 mph40.4 kmh 30.53 in1033.9 mb 0.26 in6.6 mm 0.00 in0.0 mm 0.69 in17.5 mm
03:35 AM 59.5°F15.3°C 58.4°F14.7°C 96% 13.0 mph NE20.9 kmh NE 16.8 mph27.0 kmh 30.09 in1019.0 mb 0.28 in7.1 mm 0.24 in6.1 mm 0.69 in17.5 mm
03:45 AM 59.5°F15.3°C 58.7°F14.8°C 97% 14.5 mph NNE23.3 kmh NNE 29.8 mph48.0 kmh 30.54 in1034.2 mb 0.19 in4.8 mm 0.00 in0.0 mm 0.69 in17.5 mm
04:00 AM 59.5°F15.3°C 58.7°F14.8°C 97% 14.5 mph N23.3 kmh N 26.6 mph42.8 kmh 30.55 in1034.5 mb 0.14 in3.6 mm 0.00 in0.0 mm 0.69 in17.5 mm
04:05 AM 59.5°F15.3°C 58.7°F14.8°C 97% 20.6 mph N33.2 kmh N 22.1 mph35.6 kmh 30.10 in1019.3 mb 0.15 in3.8 mm 0.12 in3.0 mm 0.69 in17.5 mm
04:15 AM 59.4°F15.2°C 58.5°F14.7°C 97% 19.0 mph N30.6 kmh N 28.2 mph45.4 kmh 30.54 in1034.2 mb 0.04 in1.0 mm 0.00 in0.0 mm 0.69 in17.5 mm
04:30 AM 59.5°F15.3°C 58.7°F14.8°C 97% 13.0 mph N20.9 kmh N 19.0 mph30.6 kmh 30.54 in1034.2 mb 0.00 in0.0 mm 0.00 in0.0 mm 0.69 in17.5 mm
04:35 AM 59.4°F15.2°C 58.5°F14.7°C 97% 12.1 mph N19.5 kmh N 17.4 mph28.0 kmh 30.11 in1019.6 mb 0.00 in0.0 mm 0.00 in0.0 mm 0.69 in17.5 mm
04:45 AM 59.5°F15.3°C 58.7°F14.8°C 97% 9.2 mph N14.8 kmh N 13.6 mph21.9 kmh 30.55 in1034.5 mb 0.00 in0.0 mm 0.00 in0.0 mm 0.69 in17.5 mm
05:00 AM 59.7°F15.4°C 58.9°F14.9°C 97% 13.0 mph N20.9 kmh N 17.4 mph28.0 kmh 30.56 in1034.9 mb 0.00 in0.0 mm 0.00 in0.0 mm 0.69 in17.5 mm
05:05 AM 59.7°F15.4°C 58.9°F14.9°C 97% 11.4 mph N18.3 kmh N 15.2 mph24.5 kmh 30.11 in1019.6 mb 0.00 in0.0 mm 0.00 in0.0 mm 0.69 in17.5 mm
05:15 AM 59.7°F15.4°C 58.9°F14.9°C 97% 8.3 mph N13.4 kmh N 13.6 mph21.9 kmh 30.57 in1035.2 mb 0.00 in0.0 mm 0.00 in0.0 mm 0.69 in17.5 mm
05:30 AM 59.9°F15.5°C 59.0°F15.0°C 97% 6.9 mph N11.1 kmh N 14.5 mph23.3 kmh 30.56 in1034.9 mb 0.00 in0.0 mm 0.00 in0.0 mm 0.69 in17.5 mm
05:35 AM 59.9°F15.5°C 59.0°F15.0°C 97% 9.8 mph NE15.8 kmh NE 13.0 mph20.9 kmh 30.11 in1019.6 mb 0.00 in0.0 mm 0.00 in0.0 mm 0.69 in17.5 mm
05:45 AM 59.9°F15.5°C 59.0°F15.0°C 97% 9.2 mph NNW14.8 kmh NNW 15.9 mph25.6 kmh 30.56 in1034.9 mb 0.00 in0.0 mm 0.00 in0.0 mm 0.69 in17.5 mm
06:00 AM 60.1°F15.6°C 60.1°F15.6°C 100% 8.3 mph N13.4 kmh N 18.3 mph29.5 kmh 30.56 in1034.9 mb 0.00 in0.0 mm 0.00 in0.0 mm 0.69 in17.5 mm
06:05 AM 60.1°F15.6°C 60.1°F15.6°C 100% 12.1 mph NW19.5 kmh NW 13.6 mph21.9 kmh 30.12 in1020.0 mb 0.00 in0.0 mm 0.00 in0.0 mm 0.69 in17.5 mm
06:15 AM 60.1°F15.6°C 60.1°F15.6°C 100% 11.4 mph NNW18.3 kmh NNW 15.9 mph25.6 kmh 30.57 in1035.2 mb 0.00 in0.0 mm 0.00 in0.0 mm 0.69 in17.5 mm
06:30 AM 60.1°F15.6°C 60.1°F15.6°C 100% 12.1 mph N19.5 kmh N 14.5 mph23.3 kmh 30.57 in1035.2 mb 0.00 in0.0 mm 0.00 in0.0 mm 0.69 in17.5 mm
06:35 AM 60.1°F15.6°C 60.1°F15.6°C 100% 10.7 mph NE17.2 kmh NE 13.0 mph20.9 kmh 30.13 in1020.3 mb 0.00 in0.0 mm 0.00 in0.0 mm 0.69 in17.5 mm
06:45 AM 60.1°F15.6°C 60.1°F15.6°C 100% 6.9 mph N11.1 kmh N 13.6 mph21.9 kmh 30.59 in1035.9 mb 0.00 in0.0 mm 0.00 in0.0 mm 0.69 in17.5 mm
07:00 AM 60.1°F15.6°C 60.1°F15.6°C 100% 7.6 mph N12.2 kmh N 10.7 mph17.2 kmh 30.60 in1036.2 mb 0.00 in0.0 mm 0.00 in0.0 mm 0.69 in17.5 mm
07:05 AM 60.1°F15.6°C 60.1°F15.6°C 100% 7.6 mph N12.2 kmh N 10.7 mph17.2 kmh 30.16 in1021.3 mb 0.00 in0.0 mm 0.00 in0.0 mm 0.69 in17.5 mm
07:15 AM 60.1°F15.6°C 59.2°F15.1°C 97% 6.9 mph NW11.1 kmh NW 12.1 mph19.5 kmh 30.61 in1036.6 mb 0.00 in0.0 mm 0.00 in0.0 mm 0.69 in17.5 mm
07:30 AM 60.3°F15.7°C 59.4°F15.2°C 97% 6.0 mph NW9.7 kmh NW 12.1 mph19.5 kmh 30.61 in1036.6 mb 0.00 in0.0 mm 0.00 in0.0 mm 0.69 in17.5 mm
07:35 AM 60.3°F15.7°C 59.4°F15.2°C 97% 5.4 mph N8.7 kmh N 7.6 mph12.2 kmh 30.17 in1021.7 mb 0.00 in0.0 mm 0.00 in0.0 mm 0.69 in17.5 mm
07:45 AM 60.4°F15.8°C 59.6°F15.3°C 97% 3.8 mph WNW6.1 kmh WNW 9.8 mph15.8 kmh 30.63 in1037.3 mb 0.00 in0.0 mm 0.00 in0.0 mm 0.69 in17.5 mm
08:00 AM 60.6°F15.9°C 59.5°F15.3°C 96% 3.8 mph NNW6.1 kmh NNW 12.1 mph19.5 kmh 30.63 in1037.3 mb 0.00 in0.0 mm 0.00 in0.0 mm 0.69 in17.5 mm
08:05 AM 60.6°F15.9°C 59.5°F15.3°C 96% 6.0 mph NW9.7 kmh NW 8.3 mph13.4 kmh 30.19 in1022.4 mb 0.00 in0.0 mm 0.00 in0.0 mm 0.69 in17.5 mm
08:15 AM 60.8°F16.0°C 59.7°F15.4°C 96% 10.7 mph NNW17.2 kmh NNW 14.5 mph23.3 kmh 30.63 in1037.3 mb 0.00 in0.0 mm 0.00 in0.0 mm 0.69 in17.5 mm
08:30 AM 60.6°F15.9°C 59.5°F15.3°C 96% 7.6 mph NW12.2 kmh NW 13.6 mph21.9 kmh 30.64 in1037.6 mb 0.00 in0.0 mm 0.00 in0.0 mm 0.69 in17.5 mm
08:35 AM 60.6°F15.9°C 59.5°F15.3°C 96% 10.7 mph NW17.2 kmh NW 13.6 mph21.9 kmh 30.20 in1022.7 mb 0.00 in0.0 mm 0.00 in0.0 mm 0.69 in17.5 mm
08:45 AM 60.3°F15.7°C 59.1°F15.1°C 96% 10.7 mph NNW17.2 kmh NNW 13.0 mph20.9 kmh 30.66 in1038.3 mb 0.01 in0.3 mm 0.06 in1.5 mm 0.70 in17.8 mm
09:00 AM 59.7°F15.4°C 58.3°F14.6°C 95% 10.7 mph N17.2 kmh N 19.7 mph31.7 kmh 30.66 in1038.3 mb 0.01 in0.3 mm 0.00 in0.0 mm 0.70 in17.8 mm
09:05 AM 59.9°F15.5°C 58.5°F14.7°C 95% 6.9 mph NW11.1 kmh NW 10.7 mph17.2 kmh 30.22 in1023.4 mb 0.01 in0.3 mm 0.00 in0.0 mm 0.70 in17.8 mm
09:15 AM 59.5°F15.3°C 58.1°F14.5°C 95% 9.8 mph NNW15.8 kmh NNW 15.9 mph25.6 kmh 30.66 in1038.3 mb 0.01 in0.3 mm 0.00 in0.0 mm 0.70 in17.8 mm
09:30 AM 59.9°F15.5°C 58.2°F14.6°C 94% 9.2 mph NNW14.8 kmh NNW 13.6 mph21.9 kmh 30.66 in1038.3 mb 0.01 in0.3 mm 0.00 in0.0 mm 0.70 in17.8 mm
09:35 AM 59.9°F15.5°C 58.2°F14.6°C 94% 6.9 mph NW11.1 kmh NW 9.2 mph14.8 kmh 30.23 in1023.7 mb 0.01 in0.3 mm 0.00 in0.0 mm 0.70 in17.8 mm
09:45 AM 60.4°F15.8°C 58.7°F14.8°C 94% 7.6 mph N12.2 kmh N 15.9 mph25.6 kmh 30.68 in1038.9 mb 0.00 in0.0 mm 0.00 in0.0 mm 0.70 in17.8 mm
10:00 AM 61.2°F16.2°C 59.1°F15.1°C 93% 11.4 mph N18.3 kmh N 16.8 mph27.0 kmh 30.68 in1038.9 mb 0.00 in0.0 mm 0.00 in0.0 mm 0.70 in17.8 mm
10:05 AM 61.2°F16.2°C 59.1°F15.1°C 93% 13.0 mph N20.9 kmh N 16.8 mph27.0 kmh 30.24 in1024.0 mb 0.00 in0.0 mm 0.00 in0.0 mm 0.70 in17.8 mm
10:15 AM 61.0°F16.1°C 58.0°F14.4°C 90% 8.3 mph N13.4 kmh N 14.5 mph23.3 kmh 30.69 in1039.3 mb 0.00 in0.0 mm 0.00 in0.0 mm 0.70 in17.8 mm
10:30 AM 61.0°F16.1°C 58.0°F14.4°C 90% 8.3 mph N13.4 kmh N 12.1 mph19.5 kmh 30.70 in1039.6 mb 0.00 in0.0 mm 0.00 in0.0 mm 0.70 in17.8 mm
10:35 AM 60.8°F16.0°C 57.8°F14.3°C 90% 6.9 mph N11.1 kmh N 8.3 mph13.4 kmh 30.25 in1024.4 mb 0.00 in0.0 mm 0.00 in0.0 mm 0.70 in17.8 mm
10:45 AM 62.2°F16.8°C 58.6°F14.8°C 88% 6.9 mph N11.1 kmh N 13.0 mph20.9 kmh 30.70 in1039.6 mb 0.00 in0.0 mm 0.00 in0.0 mm 0.70 in17.8 mm
11:00 AM 63.1°F17.3°C 57.9°F14.4°C 83% 6.9 mph N11.1 kmh N 13.0 mph20.9 kmh 30.71 in1040.0 mb 0.00 in0.0 mm 0.00 in0.0 mm 0.70 in17.8 mm
11:05 AM 63.1°F17.3°C 58.2°F14.6°C 84% 9.8 mph N15.8 kmh N 13.0 mph20.9 kmh 30.26 in1024.7 mb 0.00 in0.0 mm 0.00 in0.0 mm 0.70 in17.8 mm
11:15 AM 62.8°F17.1°C 57.2°F14.0°C 82% 6.0 mph NNW9.7 kmh NNW 13.0 mph20.9 kmh 30.71 in1040.0 mb 0.00 in0.0 mm 0.00 in0.0 mm 0.70 in17.8 mm
11:30 AM 62.8°F17.1°C 56.9°F13.8°C 81% 6.0 mph N9.7 kmh N 12.1 mph19.5 kmh 30.71 in1040.0 mb 0.00 in0.0 mm 0.00 in0.0 mm 0.70 in17.8 mm
11:35 AM 62.6°F17.0°C 56.7°F13.7°C 81% 9.2 mph N14.8 kmh N 10.7 mph17.2 kmh 30.27 in1025.1 mb 0.00 in0.0 mm 0.00 in0.0 mm 0.70 in17.8 mm
11:45 AM 63.5°F17.5°C 55.8°F13.2°C 76% 6.9 mph N11.1 kmh N 12.1 mph19.5 kmh 30.72 in1040.3 mb 0.00 in0.0 mm 0.00 in0.0 mm 0.70 in17.8 mm
12:00 PM 64.9°F18.3°C 55.7°F13.2°C 72% 9.2 mph NW14.8 kmh NW 16.8 mph27.0 kmh 30.72 in1040.3 mb 0.00 in0.0 mm 0.00 in0.0 mm 0.70 in17.8 mm
12:05 PM 64.9°F18.3°C 56.1°F13.4°C 73% 10.7 mph N17.2 kmh N 14.5 mph23.3 kmh 30.28 in1025.4 mb 0.00 in0.0 mm 0.00 in0.0 mm 0.70 in17.8 mm
12:15 PM 65.7°F18.7°C 56.0°F13.3°C 71% 9.8 mph N15.8 kmh N 13.0 mph20.9 kmh 30.72 in1040.3 mb 0.00 in0.0 mm 0.00 in0.0 mm 0.70 in17.8 mm
12:30 PM 66.0°F18.9°C 55.6°F13.1°C 69% 12.1 mph N19.5 kmh N 14.5 mph23.3 kmh 30.73 in1040.6 mb 0.00 in0.0 mm 0.00 in0.0 mm 0.70 in17.8 mm
12:35 PM 65.8°F18.8°C 55.8°F13.2°C 70% 9.8 mph NW15.8 kmh NW 11.4 mph18.3 kmh 30.29 in1025.7 mb 0.00 in0.0 mm 0.00 in0.0 mm 0.70 in17.8 mm
12:45 PM 67.1°F19.5°C 55.8°F13.2°C 67% 9.2 mph NNW14.8 kmh NNW 18.3 mph29.5 kmh 30.73 in1040.6 mb 0.00 in0.0 mm 0.00 in0.0 mm 0.70 in17.8 mm
01:00 PM 67.6°F19.8°C 55.5°F13.1°C 65% 9.8 mph NNE15.8 kmh NNE 11.4 mph18.3 kmh 30.72 in1040.3 mb 0.00 in0.0 mm 0.00 in0.0 mm 0.70 in17.8 mm
01:05 PM 67.6°F19.8°C 55.5°F13.1°C 65% 9.8 mph NE15.8 kmh NE 10.7 mph17.2 kmh 30.28 in1025.4 mb 0.00 in0.0 mm 0.00 in0.0 mm 0.70 in17.8 mm
01:15 PM 68.0°F20.0°C 55.4°F13.0°C 64% 7.6 mph N12.2 kmh N 16.8 mph27.0 kmh 30.73 in1040.6 mb 0.00 in0.0 mm 0.00 in0.0 mm 0.70 in17.8 mm
01:30 PM 68.4°F20.2°C 56.1°F13.4°C 65% 8.3 mph N13.4 kmh N 15.2 mph24.5 kmh 30.72 in1040.3 mb 0.00 in0.0 mm 0.00 in0.0 mm 0.70 in17.8 mm
01:35 PM 68.2°F20.1°C 55.5°F13.1°C 64% 5.4 mph N8.7 kmh N 7.6 mph12.2 kmh 30.28 in1025.4 mb 0.00 in0.0 mm 0.00 in0.0 mm 0.70 in17.8 mm
01:45 PM 68.5°F20.3°C 55.0°F12.8°C 62% 10.7 mph N17.2 kmh N 17.4 mph28.0 kmh 30.72 in1040.3 mb 0.00 in0.0 mm 0.00 in0.0 mm 0.70 in17.8 mm
02:00 PM 69.3°F20.7°C 55.7°F13.2°C 62% 6.9 mph NNW11.1 kmh NNW 13.6 mph21.9 kmh 30.72 in1040.3 mb 0.00 in0.0 mm 0.00 in0.0 mm 0.70 in17.8 mm
02:05 PM 69.1°F20.6°C 55.5°F13.1°C 62% 7.6 mph NW12.2 kmh NW 9.8 mph15.8 kmh 30.28 in1025.4 mb 0.00 in0.0 mm 0.00 in0.0 mm 0.70 in17.8 mm
02:15 PM 69.3°F20.7°C 55.2°F12.9°C 61% 6.9 mph NNW11.1 kmh NNW 15.2 mph24.5 kmh 30.72 in1040.3 mb 0.00 in0.0 mm 0.00 in0.0 mm 0.70 in17.8 mm
02:30 PM 69.4°F20.8°C 55.4°F13.0°C 61% 4.5 mph N7.2 kmh N 10.7 mph17.2 kmh 30.73 in1040.6 mb 0.00 in0.0 mm 0.00 in0.0 mm 0.70 in17.8 mm
02:35 PM 69.4°F20.8°C 55.4°F13.0°C 61% 8.3 mph N13.4 kmh N 10.7 mph17.2 kmh 30.29 in1025.7 mb 0.00 in0.0 mm 0.00 in0.0 mm 0.70 in17.8 mm
02:45 PM 69.6°F20.9°C 55.6°F13.1°C 61% 4.5 mph N7.2 kmh N 12.1 mph19.5 kmh 30.73 in1040.6 mb 0.00 in0.0 mm 0.00 in0.0 mm 0.70 in17.8 mm
03:00 PM 69.6°F20.9°C 55.1°F12.8°C 60% 4.5 mph NW7.2 kmh NW 9.8 mph15.8 kmh 30.73 in1040.6 mb 0.00 in0.0 mm 0.00 in0.0 mm 0.70 in17.8 mm
03:05 PM 69.6°F20.9°C 55.1°F12.8°C 60% 6.0 mph N9.7 kmh N 9.8 mph15.8 kmh 30.29 in1025.7 mb 0.00 in0.0 mm 0.00 in0.0 mm 0.70 in17.8 mm
03:15 PM 69.6°F20.9°C 54.7°F12.6°C 59% 7.6 mph NNW12.2 kmh NNW 13.0 mph20.9 kmh 30.73 in1040.6 mb 0.00 in0.0 mm 0.00 in0.0 mm 0.70 in17.8 mm
03:30 PM 69.8°F21.0°C 53.9°F12.2°C 57% 7.6 mph NW12.2 kmh NW 11.4 mph18.3 kmh 30.74 in1041.0 mb 0.00 in0.0 mm 0.00 in0.0 mm 0.70 in17.8 mm
03:35 PM 69.8°F21.0°C 54.4°F12.4°C 58% 8.3 mph NW13.4 kmh NW 10.7 mph17.2 kmh 30.29 in1025.7 mb 0.00 in0.0 mm 0.00 in0.0 mm 0.70 in17.8 mm
03:45 PM 70.0°F21.1°C 54.5°F12.5°C 58% 6.0 mph N9.7 kmh N 13.6 mph21.9 kmh 30.74 in1041.0 mb 0.00 in0.0 mm 0.00 in0.0 mm 0.70 in17.8 mm
04:00 PM 70.3°F21.3°C 54.9°F12.7°C 58% 7.6 mph NW12.2 kmh NW 9.2 mph14.8 kmh 30.74 in1041.0 mb 0.00 in0.0 mm 0.00 in0.0 mm 0.70 in17.8 mm
04:05 PM 70.3°F21.3°C 55.3°F12.9°C 59% 6.9 mph NW11.1 kmh NW 9.2 mph14.8 kmh 30.30 in1026.1 mb 0.00 in0.0 mm 0.00 in0.0 mm 0.70 in17.8 mm
04:15 PM 70.0°F21.1°C 54.0°F12.2°C 57% 4.5 mph N7.2 kmh N 8.3 mph13.4 kmh 30.74 in1041.0 mb 0.00 in0.0 mm 0.00 in0.0 mm 0.70 in17.8 mm
04:30 PM 69.4°F20.8°C 53.5°F11.9°C 57% 3.1 mph N5.0 kmh N 7.6 mph12.2 kmh 30.75 in1041.3 mb 0.00 in0.0 mm 0.00 in0.0 mm 0.70 in17.8 mm
04:35 PM 69.6°F20.9°C 53.2°F11.8°C 56% 4.5 mph N7.2 kmh N 5.4 mph8.7 kmh 30.31 in1026.4 mb 0.00 in0.0 mm 0.00 in0.0 mm 0.70 in17.8 mm
04:45 PM 69.1°F20.6°C 54.6°F12.6°C 60% 3.1 mph NW5.0 kmh NW 4.5 mph7.2 kmh 30.75 in1041.3 mb 0.00 in0.0 mm 0.00 in0.0 mm 0.70 in17.8 mm
05:00 PM 68.4°F20.2°C 54.8°F12.7°C 62% 3.1 mph NNW5.0 kmh NNW 6.9 mph11.1 kmh 30.75 in1041.3 mb 0.00 in0.0 mm 0.00 in0.0 mm 0.70 in17.8 mm
05:05 PM 68.5°F20.3°C 55.0°F12.8°C 62% 5.4 mph NW8.7 kmh NW 6.9 mph11.1 kmh 30.31 in1026.4 mb 0.00 in0.0 mm 0.00 in0.0 mm 0.70 in17.8 mm
05:15 PM 68.0°F20.0°C 54.9°F12.7°C 63% 4.5 mph NW7.2 kmh NW 9.2 mph14.8 kmh 30.75 in1041.3 mb 0.00 in0.0 mm 0.00 in0.0 mm 0.70 in17.8 mm
05:30 PM 67.6°F19.8°C 55.5°F13.1°C 65% 7.6 mph NW12.2 kmh NW 10.7 mph17.2 kmh 30.76 in1041.7 mb 0.00 in0.0 mm 0.00 in0.0 mm 0.70 in17.8 mm
05:35 PM 67.6°F19.8°C 55.5°F13.1°C 65% 5.4 mph N8.7 kmh N 6.9 mph11.1 kmh 30.32 in1026.8 mb 0.00 in0.0 mm 0.00 in0.0 mm 0.70 in17.8 mm
05:45 PM 67.5°F19.7°C 55.3°F12.9°C 65% 3.8 mph NW6.1 kmh NW 6.9 mph11.1 kmh 30.77 in1042.0 mb 0.00 in0.0 mm 0.00 in0.0 mm 0.70 in17.8 mm
06:00 PM 67.1°F19.5°C 55.4°F13.0°C 66% 3.8 mph NW6.1 kmh NW 5.4 mph8.7 kmh 30.77 in1042.0 mb 0.00 in0.0 mm 0.00 in0.0 mm 0.70 in17.8 mm
06:05 PM 67.3°F19.6°C 55.5°F13.1°C 66% 3.8 mph NW6.1 kmh NW 4.5 mph7.2 kmh 30.32 in1026.8 mb 0.00 in0.0 mm 0.00 in0.0 mm 0.70 in17.8 mm
06:15 PM 66.7°F19.3°C 55.8°F13.2°C 68% 3.8 mph NW6.1 kmh NW 6.0 mph9.7 kmh 30.77 in1042.0 mb 0.00 in0.0 mm 0.00 in0.0 mm 0.70 in17.8 mm
06:30 PM 66.4°F19.1°C 55.9°F13.3°C 69% 3.1 mph NW5.0 kmh NW 6.9 mph11.1 kmh 30.77 in1042.0 mb 0.00 in0.0 mm 0.00 in0.0 mm 0.70 in17.8 mm
06:35 PM 66.4°F19.1°C 55.9°F13.3°C 69% 4.5 mph NW7.2 kmh NW 5.4 mph8.7 kmh 30.32 in1026.8 mb 0.00 in0.0 mm 0.00 in0.0 mm 0.70 in17.8 mm
06:45 PM 66.2°F19.0°C 56.1°F13.4°C 70% 1.6 mph NW2.6 kmh NW 5.4 mph8.7 kmh 30.78 in1042.3 mb 0.00 in0.0 mm 0.00 in0.0 mm 0.70 in17.8 mm
07:00 PM 66.0°F18.9°C 56.0°F13.3°C 70% 1.6 mph N2.6 kmh N 3.8 mph6.1 kmh 30.79 in1042.7 mb 0.00 in0.0 mm 0.00 in0.0 mm 0.70 in17.8 mm
07:05 PM 66.0°F18.9°C 56.0°F13.3°C 70% 1.6 mph N2.6 kmh N 2.2 mph3.5 kmh 30.33 in1027.1 mb 0.00 in0.0 mm 0.00 in0.0 mm 0.70 in17.8 mm
07:15 PM 65.3°F18.5°C 55.7°F13.2°C 71% 1.6 mph N2.6 kmh N 3.1 mph5.0 kmh 30.78 in1042.3 mb 0.00 in0.0 mm 0.00 in0.0 mm 0.70 in17.8 mm
07:30 PM 65.1°F18.4°C 55.9°F13.3°C 72% 1.6 mph N2.6 kmh N 3.1 mph5.0 kmh 30.78 in1042.3 mb 0.00 in0.0 mm 0.00 in0.0 mm 0.70 in17.8 mm
07:35 PM 65.1°F18.4°C 55.9°F13.3°C 72% 1.6 mph N2.6 kmh N 2.2 mph3.5 kmh 30.34 in1027.4 mb 0.00 in0.0 mm 0.00 in0.0 mm 0.70 in17.8 mm
07:45 PM 64.8°F18.2°C 55.5°F13.1°C 72% 1.6 mph N2.6 kmh N 2.2 mph3.5 kmh 30.79 in1042.7 mb 0.00 in0.0 mm 0.00 in0.0 mm 0.70 in17.8 mm
08:00 PM 64.4°F18.0°C 55.6°F13.1°C 73% 2.2 mph N3.5 kmh N 3.1 mph5.0 kmh 30.79 in1042.7 mb 0.00 in0.0 mm 0.00 in0.0 mm 0.70 in17.8 mm
08:05 PM 64.6°F18.1°C 55.7°F13.2°C 73% 2.2 mph N3.5 kmh N 3.1 mph5.0 kmh 30.34 in1027.4 mb 0.00 in0.0 mm 0.00 in0.0 mm 0.70 in17.8 mm
08:15 PM 64.0°F17.8°C 56.0°F13.3°C 75% 1.6 mph NW2.6 kmh NW 3.8 mph6.1 kmh 30.79 in1042.7 mb 0.00 in0.0 mm 0.00 in0.0 mm 0.70 in17.8 mm
08:30 PM 63.7°F17.6°C 55.6°F13.1°C 75% 0.7 mph N1.1 kmh N 3.1 mph5.0 kmh 30.80 in1043.0 mb 0.00 in0.0 mm 0.00 in0.0 mm 0.70 in17.8 mm
08:35 PM 63.9°F17.7°C 55.8°F13.2°C 75% 0.7 mph NW1.1 kmh NW 1.6 mph2.6 kmh 30.35 in1027.8 mb 0.00 in0.0 mm 0.00 in0.0 mm 0.70 in17.8 mm
08:45 PM 63.3°F17.4°C 57.0°F13.9°C 80% Calm Calm 1.6 mph2.6 kmh 30.80 in1043.0 mb 0.00 in0.0 mm 0.00 in0.0 mm 0.70 in17.8 mm
09:00 PM 62.6°F17.0°C 56.3°F13.5°C 80% 0.7 mph NW1.1 kmh NW 2.2 mph3.5 kmh 30.80 in1043.0 mb 0.00 in0.0 mm 0.00 in0.0 mm 0.70 in17.8 mm
09:05 PM 62.8°F17.1°C 56.5°F13.6°C 80% 0.7 mph NW1.1 kmh NW 1.6 mph2.6 kmh 30.35 in1027.8 mb 0.00 in0.0 mm 0.00 in0.0 mm 0.70 in17.8 mm
09:15 PM 61.9°F16.6°C 55.6°F13.1°C 80% Calm Calm 0.7 mph1.1 kmh 30.80 in1043.0 mb 0.00 in0.0 mm 0.00 in0.0 mm 0.70 in17.8 mm
09:30 PM 61.2°F16.2°C 55.3°F12.9°C 81% Calm Calm 0.7 mph1.1 kmh 30.81 in1043.3 mb 0.00 in0.0 mm 0.00 in0.0 mm 0.70 in17.8 mm
09:35 PM 61.2°F16.2°C 55.3°F12.9°C 81% Calm Calm -- 30.36 in1028.1 mb 0.00 in0.0 mm 0.00 in0.0 mm 0.70 in17.8 mm
09:45 PM 60.3°F15.7°C 54.4°F12.4°C 81% Calm Calm 0.7 mph1.1 kmh 30.81 in1043.3 mb 0.00 in0.0 mm 0.00 in0.0 mm 0.70 in17.8 mm
10:00 PM 59.7°F15.4°C 54.2°F12.3°C 82% Calm Calm -- 30.81 in1043.3 mb 0.00 in0.0 mm 0.00 in0.0 mm 0.70 in17.8 mm
10:05 PM 59.7°F15.4°C 54.2°F12.3°C 82% Calm Calm -- 30.36 in1028.1 mb 0.00 in0.0 mm 0.00 in0.0 mm 0.70 in17.8 mm
10:15 PM 59.0°F15.0°C 53.8°F12.1°C 83% 0.7 mph NW1.1 kmh NW 2.2 mph3.5 kmh 30.81 in1043.3 mb 0.00 in0.0 mm 0.00 in0.0 mm 0.70 in17.8 mm
10:30 PM 58.3°F14.6°C 53.5°F11.9°C 84% 0.7 mph NW1.1 kmh NW 2.2 mph3.5 kmh 30.81 in1043.3 mb 0.00 in0.0 mm 0.00 in0.0 mm 0.70 in17.8 mm
10:35 PM 58.5°F14.7°C 53.6°F12.0°C 84% Calm Calm -- 30.38 in1028.8 mb 0.00 in0.0 mm 0.00 in0.0 mm 0.70 in17.8 mm
10:45 PM 57.9°F14.4°C 53.4°F11.9°C 85% 0.7 mph NW1.1 kmh NW 2.2 mph3.5 kmh 30.82 in1043.7 mb 0.00 in0.0 mm 0.00 in0.0 mm 0.70 in17.8 mm
11:00 PM 57.6°F14.2°C 53.4°F11.9°C 86% Calm Calm 2.2 mph3.5 kmh 30.82 in1043.7 mb 0.00 in0.0 mm 0.00 in0.0 mm 0.46 in11.7 mm
11:05 PM 57.7°F14.3°C 53.6°F12.0°C 86% Calm Calm 0.7 mph1.1 kmh 30.38 in1028.8 mb 0.00 in0.0 mm 0.00 in0.0 mm 0.46 in11.7 mm
11:15 PM 57.4°F14.1°C 53.2°F11.8°C 86% Calm Calm 1.6 mph2.6 kmh 30.82 in1043.7 mb 0.00 in0.0 mm 0.00 in0.0 mm 0.46 in11.7 mm
11:30 PM 56.8°F13.8°C 53.0°F11.7°C 87% Calm Calm 0.7 mph1.1 kmh 30.82 in1043.7 mb 0.00 in0.0 mm 0.00 in0.0 mm 0.46 in11.7 mm
11:35 PM 57.0°F13.9°C 53.2°F11.8°C 87% Calm Calm 0.7 mph1.1 kmh 30.38 in1028.8 mb 0.00 in0.0 mm 0.00 in0.0 mm 0.46 in11.7 mm
11:45 PM 56.5°F13.6°C 52.7°F11.5°C 87% 0.7 mph NW1.1 kmh NW 1.6 mph2.6 kmh 30.82 in1043.7 mb 0.00 in0.0 mm 0.00 in0.0 mm 0.46 in11.7 mm